createdAt,value
2023-05-15T00:01:07.849Z,100468.50
2023-05-15T00:03:38.961Z,100458.97
2023-05-15T00:06:10.362Z,100469.25
2023-05-15T00:08:41.556Z,100459.53
2023-05-15T00:11:13.708Z,100476.78
2023-05-15T00:13:55.519Z,100455.59
2023-05-15T00:16:28.148Z,100450.25
2023-05-15T00:18:59.085Z,100469.44
2023-05-15T00:21:29.980Z,100472.91
2023-05-15T00:24:18.132Z,100474.13
2023-05-15T00:26:56.578Z,100468.88
2023-05-15T00:29:27.688Z,100395.50
2023-05-15T00:31:59.804Z,100484.41
2023-05-15T00:34:30.358Z,100481.06
2023-05-15T00:37:01.785Z,100484.56
2023-05-15T00:39:32.118Z,100490.22
2023-05-15T00:42:06.516Z,100481.63
2023-05-15T00:44:37.220Z,100491.44
2023-05-15T00:47:13.299Z,100492.41
2023-05-15T00:49:47.258Z,100487.47
2023-05-15T00:52:18.469Z,100483.28
2023-05-15T00:54:49.319Z,100486.66
2023-05-15T00:57:21.051Z,100468.56
2023-05-15T00:59:54.901Z,100485.66
2023-05-15T01:02:27.657Z,100487.13
2023-05-15T01:04:58.378Z,100485.88
2023-05-15T01:07:31.762Z,100446.81
2023-05-15T01:10:05.785Z,100466.97
2023-05-15T01:12:41.669Z,100478.94
2023-05-15T01:15:13.341Z,100482.56
2023-05-15T01:17:52.108Z,100479.03
2023-05-15T01:20:28.067Z,100475.31
2023-05-15T01:23:09.169Z,100471.63
2023-05-15T01:26:10.313Z,100472.22
2023-05-15T01:28:48.257Z,100479.78
2023-05-15T01:31:22.214Z,100472.09
2023-05-15T01:33:59.197Z,100473.19
2023-05-15T01:36:39.137Z,100466.38
2023-05-15T01:39:11.910Z,100471.44
2023-05-15T01:41:47.877Z,100462.31
2023-05-15T01:44:24.929Z,100453.13
2023-05-15T01:47:09.929Z,100447.75
2023-05-15T01:49:43.168Z,100446.78
2023-05-15T01:52:17.598Z,100438.88
2023-05-15T01:54:52.916Z,100442.19
2023-05-15T01:57:25.448Z,100443.63
2023-05-15T02:00:01.595Z,100451.03
2023-05-15T02:02:33.538Z,100434.13
2023-05-15T02:05:05.775Z,100451.44
2023-05-15T02:07:38.229Z,100442.84
2023-05-15T02:10:11.721Z,100379.06
2023-05-15T02:12:46.232Z,100416.38
2023-05-15T02:15:22.552Z,100429.66
2023-05-15T02:17:53.697Z,100434.53
2023-05-15T02:20:24.841Z,100431.06
2023-05-15T02:22:58.821Z,100426.53
2023-05-15T02:25:40.558Z,100412.09
2023-05-15T02:28:16.183Z,100402.72
2023-05-15T02:30:56.584Z,100399.69
2023-05-15T02:33:39.449Z,100400.72
2023-05-15T02:36:21.002Z,100390.00
2023-05-15T02:38:54.095Z,100386.03
2023-05-15T02:41:25.885Z,100394.63
2023-05-15T02:43:57.865Z,100381.28
2023-05-15T02:46:33.701Z,100386.56
2023-05-15T02:49:05.650Z,100376.13
2023-05-15T02:51:38.964Z,100368.88
2023-05-15T02:54:10.523Z,100359.03
2023-05-15T02:56:41.180Z,100358.41
2023-05-15T02:59:11.891Z,100343.03
2023-05-15T03:01:44.745Z,100371.78
2023-05-15T03:04:15.522Z,100370.47
2023-05-15T03:06:46.558Z,100370.84
2023-05-15T03:09:17.566Z,100355.00
2023-05-15T03:11:48.139Z,100361.09
2023-05-15T03:14:18.960Z,100349.56
2023-05-15T03:16:51.250Z,100351.56
2023-05-15T03:19:25.024Z,100318.28
2023-05-15T03:21:57.264Z,100338.63
2023-05-15T03:24:28.114Z,100352.84
2023-05-15T03:26:58.765Z,100336.69
2023-05-15T03:29:29.363Z,100364.63
2023-05-15T03:32:01.613Z,100357.19
2023-05-15T03:34:32.303Z,100356.34
2023-05-15T03:37:07.727Z,100358.84
2023-05-15T03:39:42.926Z,100347.44
2023-05-15T03:42:13.389Z,100351.59
2023-05-15T03:44:50.678Z,100350.13
2023-05-15T03:47:28.530Z,100344.84
2023-05-15T03:50:13.444Z,100351.34
2023-05-15T03:52:44.026Z,100342.28
2023-05-15T03:55:14.626Z,100335.50
2023-05-15T03:57:45.185Z,100335.38
2023-05-15T04:00:19.247Z,100328.63
2023-05-15T04:02:52.168Z,100341.00
2023-05-15T04:05:28.934Z,100341.50
2023-05-15T04:07:59.876Z,100347.22
2023-05-15T04:10:30.691Z,100343.34
2023-05-15T04:13:01.683Z,100346.38
2023-05-15T04:15:32.571Z,100347.91
2023-05-15T04:18:05.160Z,100342.78
2023-05-15T04:20:36.290Z,100350.94
2023-05-15T04:23:07.307Z,100323.84
2023-05-15T04:25:45.282Z,100360.28
2023-05-15T04:28:16.089Z,100359.00
2023-05-15T04:30:47.523Z,100353.00
2023-05-15T04:33:20.841Z,100358.28
2023-05-15T04:35:51.734Z,100358.34
2023-05-15T04:38:22.412Z,100351.16
2023-05-15T04:40:52.939Z,100346.84
2023-05-15T04:43:24.867Z,100352.88
2023-05-15T04:45:55.841Z,100324.63
2023-05-15T04:48:28.129Z,100340.97
2023-05-15T04:50:58.924Z,100344.28
2023-05-15T04:53:29.988Z,100333.19
2023-05-15T04:56:00.537Z,100347.88
2023-05-15T04:58:34.233Z,100342.22
2023-05-15T05:01:05.383Z,100339.38
2023-05-15T05:03:39.011Z,100336.91
2023-05-15T05:06:10.092Z,100327.63
2023-05-15T05:08:41.284Z,100331.28
2023-05-15T05:11:11.870Z,100340.31
2023-05-15T05:13:43.392Z,100323.88
2023-05-15T05:16:19.960Z,100329.50
2023-05-15T05:18:52.300Z,100317.59
2023-05-15T05:21:22.798Z,100318.69
2023-05-15T05:23:53.550Z,100321.28
2023-05-15T05:26:24.464Z,100325.75
2023-05-15T05:28:57.795Z,100327.59
2023-05-15T05:31:28.447Z,100324.97
2023-05-15T05:34:00.748Z,100321.75
2023-05-15T05:36:31.625Z,100286.72
2023-05-15T05:39:02.596Z,100312.72
2023-05-15T05:41:34.033Z,100313.28
2023-05-15T05:44:07.396Z,100316.50
2023-05-15T05:47:08.576Z,100304.56
2023-05-15T05:49:41.383Z,100281.84
2023-05-15T05:52:12.112Z,100304.28
2023-05-15T05:54:42.770Z,100296.44
2023-05-15T05:57:14.709Z,100298.84
2023-05-15T05:59:46.716Z,100294.81
2023-05-15T06:02:18.080Z,100289.84
2023-05-15T06:04:50.666Z,100295.25
2023-05-15T06:07:21.369Z,100293.91
2023-05-15T06:09:51.999Z,100291.28
2023-05-15T06:12:23.178Z,100253.81
2023-05-15T06:14:54.423Z,100287.84
2023-05-15T06:17:27.511Z,100299.63
2023-05-15T06:20:05.792Z,100275.72
2023-05-15T06:22:37.569Z,100291.56
2023-05-15T06:25:14.812Z,100253.44
2023-05-15T06:27:48.447Z,100280.97
2023-05-15T06:30:20.060Z,100277.28
2023-05-15T06:32:53.811Z,100299.91
2023-05-15T06:35:26.524Z,100294.81
2023-05-15T06:37:58.535Z,100277.53
2023-05-15T06:40:29.818Z,100285.16
2023-05-15T06:43:02.386Z,100265.19
2023-05-15T06:45:33.005Z,100280.66
2023-05-15T06:48:03.797Z,100285.88
2023-05-15T06:50:36.073Z,100286.75
2023-05-15T06:53:06.969Z,100291.28
2023-05-15T06:55:39.012Z,100287.22
2023-05-15T06:58:09.592Z,100293.81
2023-05-15T07:00:40.169Z,100294.22
2023-05-15T07:03:10.932Z,100298.97
2023-05-15T07:05:43.279Z,100295.16
2023-05-15T07:08:16.452Z,100305.00
2023-05-15T07:10:46.989Z,100304.19
2023-05-15T07:13:25.427Z,100308.50
2023-05-15T07:15:58.883Z,100300.75
2023-05-15T07:18:29.630Z,100305.75
2023-05-15T07:21:03.142Z,100308.47
2023-05-15T07:23:34.688Z,100303.88
2023-05-15T07:26:14.116Z,100297.16
2023-05-15T07:28:48.544Z,100301.66
2023-05-15T07:31:29.114Z,100313.06
2023-05-15T07:34:06.325Z,100304.44
2023-05-15T07:37:44.886Z,100304.28
2023-05-15T07:40:18.768Z,100309.75
2023-05-15T07:42:50.415Z,100283.03
2023-05-15T07:45:22.428Z,100307.38
2023-05-15T07:47:54.162Z,100308.44
2023-05-15T07:50:25.622Z,100314.69
2023-05-15T07:52:56.986Z,100315.72
2023-05-15T07:55:29.981Z,100301.16
2023-05-15T07:58:01.719Z,100331.81
2023-05-15T08:00:33.413Z,100325.91
2023-05-15T08:03:05.037Z,100314.75
2023-05-15T08:05:36.700Z,100308.66
2023-05-15T08:08:08.152Z,100317.63
2023-05-15T08:10:41.179Z,100320.38
2023-05-15T08:13:12.722Z,100323.97
2023-05-15T08:15:44.401Z,100315.28
2023-05-15T08:18:17.363Z,100310.84
2023-05-15T08:20:49.444Z,100313.47
2023-05-15T08:23:21.456Z,100317.16
2023-05-15T08:25:55.387Z,100316.28
2023-05-15T08:28:27.294Z,100305.84
2023-05-15T08:30:59.184Z,100298.84
2023-05-15T08:33:30.926Z,100301.56
2023-05-15T08:36:04.375Z,100311.16
2023-05-15T08:38:35.932Z,100313.72
2023-05-15T08:41:14.623Z,100300.97
2023-05-15T08:43:47.290Z,100314.81
2023-05-15T08:46:18.830Z,100309.94
2023-05-15T08:48:51.079Z,100326.59
2023-05-15T08:51:22.367Z,100333.72
2023-05-15T08:53:54.061Z,100332.84
2023-05-15T08:56:26.285Z,100318.81
2023-05-15T08:58:57.332Z,100315.34
2023-05-15T09:01:28.679Z,100311.75
2023-05-15T09:03:59.804Z,100306.47
2023-05-15T09:06:31.777Z,100324.72
2023-05-15T09:09:04.334Z,100322.09
2023-05-15T09:11:39.536Z,100325.69
2023-05-15T09:14:15.410Z,100277.50
2023-05-15T09:16:51.133Z,100339.88
2023-05-15T09:19:23.328Z,100339.94
2023-05-15T09:21:54.102Z,100340.97
2023-05-15T09:24:25.972Z,100329.81
2023-05-15T09:27:11.678Z,100335.00
2023-05-15T09:29:42.582Z,100336.78
2023-05-15T09:32:16.961Z,100349.09
2023-05-15T09:34:48.058Z,100327.47
2023-05-15T09:37:32.814Z,100345.81
2023-05-15T09:40:17.308Z,100347.63
2023-05-15T09:42:55.196Z,100328.63
2023-05-15T09:45:27.224Z,100306.31
2023-05-15T09:48:01.705Z,100332.25
2023-05-15T09:50:38.519Z,100330.53
2023-05-15T09:56:37.389Z,100340.94
2023-05-15T09:59:15.295Z,100322.00
2023-05-15T10:01:49.259Z,100346.16
2023-05-15T10:04:20.076Z,100353.88
2023-05-15T10:06:59.154Z,100345.25
2023-05-15T10:09:34.744Z,100317.66
2023-05-15T10:12:06.947Z,100342.63
2023-05-15T10:14:39.513Z,100346.84
2023-05-15T10:17:11.418Z,100343.63
2023-05-15T10:19:56.599Z,100350.56
2023-05-15T10:22:32.711Z,100354.16
2023-05-15T10:25:11.230Z,100318.72
2023-05-15T10:27:43.372Z,100335.13
2023-05-15T10:30:19.351Z,100354.13
2023-05-15T10:32:52.708Z,100366.31
2023-05-15T10:35:24.297Z,100366.38
2023-05-15T10:37:55.308Z,100367.31
2023-05-15T10:40:27.603Z,100374.28
2023-05-15T10:43:02.135Z,100369.06
2023-05-15T10:45:37.636Z,100317.25
2023-05-15T10:48:13.150Z,100367.38
2023-05-15T10:50:43.801Z,100350.22
2023-05-15T10:53:14.529Z,100377.91
2023-05-15T10:55:49.234Z,100372.66
2023-05-15T10:58:25.944Z,100379.59
2023-05-15T11:00:58.270Z,100373.44
2023-05-15T11:03:49.113Z,100381.28
2023-05-15T11:06:31.824Z,100357.97
2023-05-15T11:09:36.850Z,100383.88
2023-05-15T11:12:10.393Z,100384.63
2023-05-15T11:14:43.179Z,100360.44
2023-05-15T11:17:17.726Z,100376.72
2023-05-15T11:20:01.708Z,100379.34
2023-05-15T11:22:36.900Z,100374.88
2023-05-15T11:25:10.383Z,100370.56
2023-05-15T11:27:45.712Z,100381.09
2023-05-15T11:30:21.741Z,100370.66
2023-05-15T11:32:58.099Z,100337.88
2023-05-15T11:35:31.307Z,100370.72
2023-05-15T11:38:03.182Z,100358.63
2023-05-15T11:40:35.343Z,100367.31
2023-05-15T11:43:09.213Z,100357.88
2023-05-15T11:45:40.943Z,100351.94
2023-05-15T11:48:18.734Z,100301.97
2023-05-15T11:50:49.706Z,100358.84
2023-05-15T11:53:22.058Z,100369.28
2023-05-15T11:55:57.953Z,100331.19
2023-05-15T11:58:29.303Z,100360.41
2023-05-15T12:01:01.498Z,100363.81
2023-05-15T12:03:37.442Z,100294.84
2023-05-15T12:06:08.761Z,100355.94
2023-05-15T12:08:41.209Z,100354.28
2023-05-15T12:11:12.127Z,100352.59
2023-05-15T12:13:43.033Z,100354.22
2023-05-15T12:16:13.582Z,100362.00
2023-05-15T12:18:45.839Z,100349.84
2023-05-15T12:21:16.519Z,100351.63
2023-05-15T12:26:31.106Z,100346.88
2023-05-15T12:29:01.809Z,100344.31
2023-05-15T12:31:32.658Z,100351.16
2023-05-15T12:34:05.340Z,100344.38
2023-05-15T12:36:36.108Z,100336.75
2023-05-15T12:39:10.206Z,100342.84
2023-05-15T12:41:41.346Z,100342.91
2023-05-15T12:44:20.359Z,100329.00
2023-05-15T12:46:51.504Z,100317.00
2023-05-15T12:49:28.179Z,100349.00
2023-05-15T12:51:58.727Z,100353.34
2023-05-15T12:54:29.338Z,100356.75
2023-05-15T12:57:01.450Z,100349.91
2023-05-15T12:59:33.998Z,100358.84
2023-05-15T13:02:04.814Z,100298.38
2023-05-15T13:04:38.223Z,100356.31
2023-05-15T13:07:09.311Z,100362.50
2023-05-15T13:09:43.152Z,100355.50
2023-05-15T13:12:15.530Z,100358.03
2023-05-15T13:14:46.102Z,100348.50
2023-05-15T13:17:18.167Z,100350.19
2023-05-15T13:19:56.366Z,100345.94
2023-05-15T13:22:28.849Z,100348.63
2023-05-15T13:25:00.427Z,100312.41
2023-05-15T13:27:33.771Z,100344.38
2023-05-15T13:30:04.303Z,100348.63
2023-05-15T13:32:37.130Z,100348.63
2023-05-15T13:35:10.916Z,100345.25
2023-05-15T13:37:44.224Z,100350.41
2023-05-15T13:40:15.748Z,100350.38
2023-05-15T13:42:47.111Z,100349.47
2023-05-15T13:45:20.856Z,100336.56
2023-05-15T13:47:51.859Z,100347.13
2023-05-15T13:50:31.106Z,100344.56
2023-05-15T13:53:01.734Z,100335.09
2023-05-15T13:55:32.628Z,100329.00
2023-05-15T13:58:05.053Z,100347.31
2023-05-15T14:00:38.283Z,100348.22
2023-05-15T14:03:12.592Z,100353.53
2023-05-15T14:05:49.152Z,100343.19
2023-05-15T14:08:21.292Z,100343.31
2023-05-15T14:10:51.857Z,100344.28
2023-05-15T14:13:22.557Z,100352.13
2023-05-15T14:15:54.451Z,100339.09
2023-05-15T14:18:26.190Z,100344.38
2023-05-15T14:20:58.610Z,100343.53
2023-05-15T14:23:29.460Z,100348.78
2023-05-15T14:26:00.361Z,100346.22
2023-05-15T14:28:30.981Z,100348.00
2023-05-15T14:31:01.936Z,100358.50
2023-05-15T14:33:32.675Z,100353.47
2023-05-15T14:36:05.395Z,100351.81
2023-05-15T14:38:36.704Z,100346.69
2023-05-15T14:41:07.438Z,100353.66
2023-05-15T14:43:38.081Z,100332.03
2023-05-15T14:46:11.287Z,100354.44
2023-05-15T14:48:42.226Z,100333.75
2023-05-15T14:51:14.425Z,100355.34
2023-05-15T14:53:45.367Z,100351.00
2023-05-15T14:56:16.090Z,100353.66
2023-05-15T14:58:47.469Z,100340.63
2023-05-15T15:01:18.243Z,100345.09
2023-05-15T15:03:48.794Z,100336.47
2023-05-15T15:06:21.100Z,100334.75
2023-05-15T15:08:51.882Z,100326.06
2023-05-15T15:11:22.446Z,100329.47
2023-05-15T15:13:53.020Z,100324.16
2023-05-15T15:16:23.722Z,100329.47
2023-05-15T15:18:54.500Z,100333.88
2023-05-15T15:21:26.926Z,100313.94
2023-05-15T15:23:57.688Z,100321.78
2023-05-15T15:26:31.087Z,100307.03
2023-05-15T15:29:02.294Z,100320.03
2023-05-15T15:31:33.350Z,100314.88
2023-05-15T15:34:05.605Z,100320.09
2023-05-15T15:36:39.553Z,100317.47
2023-05-15T15:39:10.613Z,100298.41
2023-05-15T15:42:16.822Z,100291.47
2023-05-15T15:44:49.323Z,100296.63
2023-05-15T15:47:22.129Z,100296.56
2023-05-15T15:49:53.930Z,100293.06
2023-05-15T15:52:26.093Z,100289.59
2023-05-15T15:54:56.752Z,100268.81
2023-05-15T15:57:27.921Z,100273.97
2023-05-15T15:59:58.606Z,100263.59
2023-05-15T16:02:29.252Z,100273.97
2023-05-15T16:05:02.176Z,100282.69
2023-05-15T16:07:34.354Z,100272.31
2023-05-15T16:10:12.590Z,100279.25
2023-05-15T16:12:57.866Z,100272.31
2023-05-15T16:15:28.646Z,100261.09
2023-05-15T16:17:59.294Z,100265.31
2023-05-15T16:20:30.033Z,100260.19
2023-05-15T16:23:02.262Z,100260.22
2023-05-15T16:25:32.853Z,100254.16
2023-05-15T16:28:03.287Z,100255.00
2023-05-15T16:30:47.405Z,100253.25
2023-05-15T16:33:19.994Z,100260.22
2023-05-15T16:35:50.840Z,100257.66
2023-05-15T16:38:23.680Z,100251.59
2023-05-15T16:40:54.210Z,100260.28
2023-05-15T16:43:24.695Z,100255.06
2023-05-15T16:45:55.291Z,100254.22
2023-05-15T16:48:27.168Z,100255.06
2023-05-15T16:50:57.719Z,100253.34
2023-05-15T16:53:30.184Z,100268.91
2023-05-15T16:56:01.076Z,100265.44
2023-05-15T16:58:31.875Z,100252.50
2023-05-15T17:01:02.355Z,100260.28
2023-05-15T17:03:33.209Z,100255.00
2023-05-15T17:06:03.814Z,100251.53
2023-05-15T17:08:35.999Z,100248.13
2023-05-15T17:11:07.882Z,100238.59
2023-05-15T17:13:38.415Z,100249.84
2023-05-15T17:16:09.539Z,100240.34
2023-05-15T17:18:42.884Z,100245.56
2023-05-15T17:21:13.488Z,100265.53
2023-05-15T17:23:45.609Z,100259.41
2023-05-15T17:26:16.615Z,100255.19
2023-05-15T17:28:47.160Z,100254.41
2023-05-15T17:31:19.694Z,100255.19
2023-05-15T17:33:50.296Z,100250.88
2023-05-15T17:36:20.814Z,100254.25
2023-05-15T17:38:53.129Z,100255.09
2023-05-15T17:41:24.035Z,100261.13
2023-05-15T17:43:54.636Z,100267.16
2023-05-15T17:46:25.094Z,100255.00
2023-05-15T17:48:55.645Z,100250.66
2023-05-15T17:51:29.128Z,100259.38
2023-05-15T17:54:01.490Z,100258.56
2023-05-15T17:56:32.086Z,100271.56
2023-05-15T17:59:02.653Z,100263.78
2023-05-15T18:01:36.048Z,100279.44
2023-05-15T18:04:06.817Z,100277.59
2023-05-15T18:06:37.664Z,100270.69
2023-05-15T18:09:10.195Z,100256.75
2023-05-15T18:11:40.680Z,100262.03
2023-05-15T18:14:11.824Z,100288.13
2023-05-15T18:16:42.518Z,100293.31
2023-05-15T18:19:13.218Z,100293.31
2023-05-15T18:21:43.865Z,100296.78
2023-05-15T18:24:16.127Z,100289.00
2023-05-15T18:26:46.898Z,100290.84
2023-05-15T18:29:17.362Z,100296.88
2023-05-15T18:31:53.104Z,100306.38
2023-05-15T18:34:23.725Z,100302.00
2023-05-15T18:36:54.198Z,100312.44
2023-05-15T18:39:26.327Z,100310.69
2023-05-15T18:41:58.107Z,100309.88
2023-05-15T18:44:29.608Z,100312.44
2023-05-15T18:47:00.151Z,100315.03
2023-05-15T18:49:31.627Z,100322.88
2023-05-15T18:52:02.217Z,100314.19
2023-05-15T18:54:34.367Z,100303.81
2023-05-15T18:57:05.010Z,100296.06
2023-05-15T18:59:35.571Z,100297.88
2023-05-15T19:02:06.199Z,100291.84
2023-05-15T19:04:36.810Z,100287.56
2023-05-15T19:07:07.458Z,100284.09
2023-05-15T19:09:39.702Z,100234.84
2023-05-15T19:12:10.494Z,100286.66
2023-05-15T19:14:40.997Z,100288.41
2023-05-15T19:17:14.608Z,100304.06
2023-05-15T19:19:45.844Z,100300.56
2023-05-15T19:22:16.576Z,100306.66
2023-05-15T19:24:48.707Z,100270.44
2023-05-15T19:27:19.161Z,100310.16
2023-05-15T19:29:50.579Z,100316.16
2023-05-15T19:32:21.420Z,100312.69
2023-05-15T19:34:52.157Z,100310.91
2023-05-15T19:37:22.741Z,100310.84
2023-05-15T19:39:57.371Z,100300.50
2023-05-15T19:42:27.870Z,100302.22
2023-05-15T19:44:58.533Z,100316.13
2023-05-15T19:47:29.119Z,100314.34
2023-05-15T19:49:59.838Z,100310.91
2023-05-15T19:52:30.386Z,100300.56
2023-05-15T19:55:02.643Z,100307.47
2023-05-15T19:57:33.185Z,100302.22
2023-05-15T20:00:04.553Z,100305.59
2023-05-15T20:02:35.417Z,100303.75
2023-05-15T20:05:05.980Z,100310.78
2023-05-15T20:07:36.642Z,100316.00
2023-05-15T20:10:10.121Z,100314.28
2023-05-15T20:12:43.777Z,100310.78
2023-05-15T20:15:16.639Z,100316.00
2023-05-15T20:17:47.525Z,100295.16
2023-05-15T20:20:21.467Z,100293.41
2023-05-15T20:22:52.012Z,100317.75
2023-05-15T20:25:24.485Z,100316.81
2023-05-15T20:27:57.800Z,100309.81
2023-05-15T20:30:29.858Z,100310.66
2023-05-15T20:33:00.545Z,100314.09
2023-05-15T20:35:31.940Z,100315.00
2023-05-15T20:38:03.232Z,100318.47
2023-05-15T20:40:35.536Z,100322.03
2023-05-15T20:43:06.102Z,100315.97
2023-05-15T20:45:36.892Z,100308.97
2023-05-15T20:48:07.749Z,100298.53
2023-05-15T20:50:38.278Z,100295.97
2023-05-15T20:53:08.992Z,100295.94
2023-05-15T20:55:41.341Z,100296.75
2023-05-15T20:58:11.904Z,100287.97
2023-05-15T21:00:42.512Z,100286.13
2023-05-15T21:03:14.067Z,100278.19
2023-05-15T21:05:44.757Z,100273.78
2023-05-15T21:08:15.310Z,100284.22
2023-05-15T21:10:51.847Z,100280.75
2023-05-15T21:13:22.334Z,100282.56
2023-05-15T21:15:53.474Z,100291.22
2023-05-15T21:18:24.608Z,100291.09
2023-05-15T21:20:55.593Z,100286.63
2023-05-15T21:23:26.089Z,100278.63
2023-05-15T21:25:58.411Z,100269.84
2023-05-15T21:28:29.007Z,100266.19
2023-05-15T21:31:02.315Z,100257.41
2023-05-15T21:33:32.853Z,100253.09
2023-05-15T21:36:04.192Z,100254.16
2023-05-15T21:38:34.790Z,100258.59
2023-05-15T21:41:07.063Z,100264.75
2023-05-15T21:43:37.732Z,100270.09
2023-05-15T21:46:08.270Z,100275.31
2023-05-15T21:48:38.824Z,100261.34
2023-05-15T21:51:09.442Z,100251.66
2023-05-15T21:53:40.010Z,100252.25
2023-05-15T21:56:12.424Z,100251.88
2023-05-15T21:58:46.451Z,100239.22
2023-05-15T22:01:18.770Z,100239.53
2023-05-15T22:03:49.720Z,100242.38
2023-05-15T22:06:23.094Z,100229.50
2023-05-15T22:08:53.662Z,100225.69
2023-05-15T22:11:25.875Z,100229.25
2023-05-15T22:13:56.833Z,100229.63
2023-05-15T22:16:27.595Z,100208.50
2023-05-15T22:18:58.465Z,100239.06
2023-05-15T22:21:29.137Z,100236.44
2023-05-15T22:24:04.278Z,100236.41
2023-05-15T22:26:36.507Z,100234.44
2023-05-15T22:29:07.073Z,100229.09
2023-05-15T22:31:37.699Z,100239.41
2023-05-15T22:34:08.173Z,100240.34
2023-05-15T22:36:38.830Z,100237.69
2023-05-15T22:39:10.094Z,100236.66
2023-05-15T22:41:42.309Z,100251.06
2023-05-15T22:44:20.612Z,100244.44
2023-05-15T22:46:51.552Z,100244.97
2023-05-15T22:49:24.741Z,100245.59
2023-05-15T22:51:57.859Z,100193.09
2023-05-15T22:54:28.714Z,100243.09
2023-05-15T22:57:01.258Z,100237.94
2023-05-15T22:59:34.958Z,100244.13
2023-05-15T23:02:05.796Z,100222.72
2023-05-15T23:04:37.201Z,100217.47
2023-05-15T23:07:08.038Z,100231.13
2023-05-15T23:09:40.623Z,100218.63
2023-05-15T23:12:13.266Z,100218.38
2023-05-15T23:14:47.334Z,100225.59
2023-05-15T23:17:19.482Z,100220.56
2023-05-15T23:19:52.415Z,100237.84
2023-05-15T23:22:24.095Z,100210.41
2023-05-15T23:24:55.691Z,100232.78
2023-05-15T23:27:28.988Z,100222.38
2023-05-15T23:30:00.577Z,100216.75
2023-05-15T23:32:38.411Z,100211.06
2023-05-15T23:35:11.081Z,100202.53
2023-05-15T23:37:41.787Z,100212.59
2023-05-15T23:40:13.473Z,100207.78
2023-05-15T23:42:45.773Z,100202.03
2023-05-15T23:45:16.532Z,100197.81
2023-05-15T23:47:47.328Z,100187.69
2023-05-15T23:50:19.491Z,100194.97
2023-05-15T23:52:50.129Z,100188.88
2023-05-15T23:55:20.757Z,100185.25
2023-05-15T23:58:00.150Z,100178.31
